createdAt,value
2018-07-14T00:00:07.246Z,16.88
2018-07-14T00:01:16.107Z,17
2018-07-14T00:02:24.968Z,16.97
2018-07-14T00:03:33.828Z,16.93
2018-07-14T00:04:42.688Z,16.81
2018-07-14T00:05:51.902Z,16.82
2018-07-14T00:07:00.761Z,16.94
2018-07-14T00:08:09.623Z,16.85
2018-07-14T00:09:18.481Z,16.91
2018-07-14T00:10:27.339Z,16.88
2018-07-14T00:11:36.484Z,16.89
2018-07-14T00:12:45.341Z,16.82
2018-07-14T00:13:54.202Z,16.71
2018-07-14T00:15:03.351Z,16.75
2018-07-14T00:16:12.493Z,16.7
2018-07-14T00:17:21.707Z,16.71
2018-07-14T00:18:30.842Z,16.71
2018-07-14T00:19:39.702Z,16.71
2018-07-14T00:20:48.564Z,16.64
2018-07-14T00:21:57.423Z,16.58
2018-07-14T00:23:06.561Z,16.7
2018-07-14T00:24:15.717Z,16.68
2018-07-14T00:25:24.917Z,16.67
2018-07-14T00:26:33.778Z,16.61
2018-07-14T00:27:42.642Z,16.7
2018-07-14T00:28:51.783Z,16.61
2018-07-14T00:30:00.644Z,16.6
2018-07-14T00:31:09.506Z,16.57
2018-07-14T00:32:18.368Z,16.58
2018-07-14T00:33:27.503Z,16.49
2018-07-14T00:34:36.643Z,16.58
2018-07-14T00:35:45.501Z,16.49
2018-07-14T00:36:54.642Z,16.45
2018-07-14T00:38:03.502Z,16.49
2018-07-14T00:39:12.363Z,16.39
2018-07-14T00:40:21.367Z,16.43
2018-07-14T00:41:30.226Z,16.38
2018-07-14T00:42:39.089Z,16.35
2018-07-14T00:43:47.949Z,16.24
2018-07-14T00:44:56.809Z,16.17
2018-07-14T00:46:06.033Z,16.24
2018-07-14T00:47:14.891Z,16.14
2018-07-14T00:48:24.030Z,16.14
2018-07-14T00:49:33.167Z,16.07
2018-07-14T00:50:42.034Z,16.07
2018-07-14T00:51:50.889Z,16.01
2018-07-14T00:52:59.750Z,15.97
2018-07-14T00:54:08.893Z,16.01
2018-07-14T00:55:18.027Z,16.04
2018-07-14T00:56:26.888Z,16.04
2018-07-14T00:57:35.897Z,15.92
2018-07-14T00:58:44.808Z,16
2018-07-14T00:59:53.669Z,15.94
2018-07-14T01:01:02.531Z,15.94
2018-07-14T01:02:11.388Z,15.82
2018-07-14T01:03:20.248Z,15.89
2018-07-14T01:04:29.109Z,15.87
2018-07-14T01:05:37.971Z,15.84
2018-07-14T01:06:46.830Z,15.78
2018-07-14T01:07:55.691Z,15.82
2018-07-14T01:09:04.977Z,15.84
2018-07-14T01:10:13.839Z,15.82
2018-07-14T01:11:22.700Z,15.78
2018-07-14T01:12:31.561Z,15.82
2018-07-14T01:13:40.697Z,15.78
2018-07-14T01:14:49.987Z,15.82
2018-07-14T01:15:58.851Z,15.86
2018-07-14T01:17:07.711Z,15.82
2018-07-14T01:18:16.570Z,15.83
2018-07-14T01:19:25.432Z,15.8
2018-07-14T01:20:34.291Z,15.78
2018-07-14T01:21:43.153Z,15.83
2018-07-14T01:22:52.285Z,15.75
2018-07-14T01:24:01.144Z,15.84
2018-07-14T01:25:10.006Z,15.78
2018-07-14T01:26:18.866Z,15.86
2018-07-14T01:27:27.729Z,15.89
2018-07-14T01:28:36.866Z,15.8
2018-07-14T01:29:45.724Z,15.8
2018-07-14T01:30:54.860Z,15.86
2018-07-14T01:32:03.998Z,15.86
2018-07-14T01:33:12.856Z,15.86
2018-07-14T01:34:21.716Z,15.89
2018-07-14T01:35:30.574Z,15.9
2018-07-14T01:36:39.434Z,15.89
2018-07-14T01:37:48.394Z,15.76
2018-07-14T01:38:57.254Z,15.86
2018-07-14T01:40:06.114Z,15.89
2018-07-14T01:41:14.974Z,15.9
2018-07-14T01:42:24.111Z,15.8
2018-07-14T01:43:32.976Z,15.89
2018-07-14T01:44:42.120Z,15.87
2018-07-14T01:45:50.979Z,15.83
2018-07-14T01:46:59.839Z,15.9
2018-07-14T01:48:08.702Z,15.92
2018-07-14T01:49:17.558Z,16
2018-07-14T01:50:26.422Z,15.96
2018-07-14T01:51:35.283Z,15.97
2018-07-14T01:52:44.142Z,15.97
2018-07-14T01:53:53.003Z,15.97
2018-07-14T01:55:02.013Z,16.01
2018-07-14T01:56:10.878Z,15.92
2018-07-14T01:57:19.737Z,16
2018-07-14T01:58:28.601Z,16
2018-07-14T01:59:37.466Z,15.96
2018-07-14T02:00:46.963Z,15.92
2018-07-14T02:01:56.102Z,15.96
2018-07-14T02:03:04.961Z,16.07
2018-07-14T02:04:13.821Z,16.01
2018-07-14T02:05:22.682Z,16.01
2018-07-14T02:06:31.550Z,16.04
2018-07-14T02:07:40.686Z,16.02
2018-07-14T02:08:49.827Z,15.94
2018-07-14T02:09:58.961Z,16.02
2018-07-14T02:11:08.102Z,16.09
2018-07-14T02:12:16.961Z,16.04
2018-07-14T02:13:25.819Z,16.01
2018-07-14T02:14:34.958Z,16
2018-07-14T02:15:43.819Z,15.97
2018-07-14T02:16:52.686Z,15.9
2018-07-14T02:18:01.703Z,15.87
2018-07-14T02:19:10.839Z,15.9
2018-07-14T02:20:19.702Z,15.9
2018-07-14T02:21:28.561Z,15.93
2018-07-14T02:22:37.424Z,15.93
2018-07-14T02:23:46.712Z,15.8
2018-07-14T02:24:55.848Z,15.83
2018-07-14T02:26:04.709Z,15.78
2018-07-14T02:27:13.569Z,15.82
2018-07-14T02:28:22.429Z,15.76
2018-07-14T02:29:31.390Z,15.84
2018-07-14T02:30:40.523Z,15.76
2018-07-14T02:31:49.399Z,15.64
2018-07-14T02:32:58.819Z,15.65
2018-07-14T02:34:07.686Z,15.8
2018-07-14T02:35:16.556Z,15.8
2018-07-14T02:36:25.696Z,15.83
2018-07-14T02:37:34.835Z,15.71
2018-07-14T02:38:43.972Z,15.69
2018-07-14T02:39:53.119Z,15.57
2018-07-14T02:41:02.266Z,15.71
2018-07-14T02:42:11.688Z,15.57
2018-07-14T02:43:20.843Z,15.56
2018-07-14T02:44:29.982Z,15.49
2018-07-14T02:45:39.124Z,15.53
2018-07-14T02:46:48.616Z,15.57
2018-07-14T02:47:57.750Z,15.49
2018-07-14T02:49:06.888Z,15.51
2018-07-14T02:50:16.025Z,15.51
2018-07-14T02:51:25.161Z,15.39
2018-07-14T02:52:34.131Z,15.38
2018-07-14T02:53:42.998Z,15.38
2018-07-14T02:54:51.862Z,15.46
2018-07-14T02:56:01.006Z,15.41
2018-07-14T02:57:09.870Z,15.46
2018-07-14T02:58:18.880Z,15.39
2018-07-14T02:59:28.020Z,15.53
2018-07-14T03:00:36.885Z,15.56
2018-07-14T03:01:45.755Z,15.59
2018-07-14T03:02:54.613Z,15.56
2018-07-14T03:04:03.628Z,15.51
2018-07-14T03:05:13.046Z,15.5
2018-07-14T03:06:22.459Z,15.51
2018-07-14T03:07:31.883Z,15.5
2018-07-14T03:08:41.029Z,15.56
2018-07-14T03:09:50.729Z,15.53
2018-07-14T03:10:59.588Z,15.53
2018-07-14T03:12:08.450Z,15.54
2018-07-14T03:13:17.592Z,15.56
2018-07-14T03:14:26.454Z,15.49
2018-07-14T03:15:35.603Z,15.46
2018-07-14T03:16:44.756Z,15.46
2018-07-14T03:17:54.179Z,15.5
2018-07-14T03:19:03.035Z,15.51
2018-07-14T03:20:12.175Z,15.5
2018-07-14T03:21:21.468Z,15.36
2018-07-14T03:22:30.341Z,15.43
2018-07-14T03:23:39.756Z,15.44
2018-07-14T03:24:48.621Z,15.39
2018-07-14T03:25:57.764Z,15.44
2018-07-14T03:27:07.250Z,15.46
2018-07-14T03:28:16.111Z,15.5
2018-07-14T03:29:24.971Z,15.51
2018-07-14T03:30:33.835Z,15.51
2018-07-14T03:31:42.983Z,15.54
2018-07-14T03:32:52.468Z,15.59
2018-07-14T03:34:01.325Z,15.5
2018-07-14T03:35:10.185Z,15.54
2018-07-14T03:36:19.045Z,15.56
2018-07-14T03:37:27.906Z,15.57
2018-07-14T03:38:37.473Z,15.53
2018-07-14T03:39:46.335Z,15.59
2018-07-14T03:40:55.197Z,15.64
2018-07-14T03:42:04.589Z,15.56
2018-07-14T03:43:13.359Z,15.67
2018-07-14T03:44:22.218Z,15.67
2018-07-14T03:45:31.077Z,15.65
2018-07-14T03:46:39.936Z,15.64
2018-07-14T03:47:49.074Z,15.67
2018-07-14T03:48:58.213Z,15.6
2018-07-14T03:50:07.075Z,15.62
2018-07-14T03:51:15.933Z,15.71
2018-07-14T03:52:25.076Z,15.65
2018-07-14T03:53:33.936Z,15.67
2018-07-14T03:54:42.794Z,15.69
2018-07-14T03:55:51.659Z,15.76
2018-07-14T03:57:00.577Z,15.71
2018-07-14T03:58:09.386Z,15.64
2018-07-14T03:59:18.241Z,15.68
2018-07-14T04:00:27.098Z,15.64
2018-07-14T04:01:35.958Z,15.65
2018-07-14T04:02:44.821Z,15.67
2018-07-14T04:03:53.680Z,15.69
2018-07-14T04:05:02.545Z,15.76
2018-07-14T04:06:11.405Z,15.84
2018-07-14T04:07:20.413Z,15.92
2018-07-14T04:08:29.273Z,15.89
2018-07-14T04:09:38.132Z,15.93
2018-07-14T04:10:46.995Z,15.94
2018-07-14T04:11:55.853Z,15.93
2018-07-14T04:13:04.715Z,15.96
2018-07-14T04:14:13.577Z,15.93
2018-07-14T04:15:22.711Z,15.92
2018-07-14T04:16:31.572Z,15.82
2018-07-14T04:17:40.434Z,15.68
2018-07-14T04:18:49.570Z,15.64
2018-07-14T04:19:58.708Z,15.72
2018-07-14T04:21:08.392Z,15.8
2018-07-14T04:22:17.252Z,15.71
2018-07-14T04:23:26.111Z,15.72
2018-07-14T04:24:35.073Z,15.68
2018-07-14T04:25:43.935Z,15.65
2018-07-14T04:26:52.794Z,15.84
2018-07-14T04:28:01.656Z,15.75
2018-07-14T04:29:10.526Z,15.86
2018-07-14T04:30:19.663Z,15.9
2018-07-14T04:31:28.801Z,15.74
2018-07-14T04:32:37.660Z,15.87
2018-07-14T04:33:46.519Z,15.8
2018-07-14T04:34:55.657Z,15.71
2018-07-14T04:36:04.520Z,15.69
2018-07-14T04:37:13.653Z,15.72
2018-07-14T04:38:22.517Z,15.69
2018-07-14T04:39:31.379Z,15.69
2018-07-14T04:40:40.239Z,15.64
2018-07-14T04:41:49.259Z,15.65
2018-07-14T04:42:58.117Z,15.76
2018-07-14T04:44:07.253Z,15.69
2018-07-14T04:45:16.114Z,15.74
2018-07-14T04:46:24.972Z,15.84
2018-07-14T04:47:33.836Z,15.83
2018-07-14T04:48:43.249Z,15.83
2018-07-14T04:49:52.110Z,15.9
2018-07-14T04:51:00.970Z,15.94
2018-07-14T04:52:09.832Z,15.96
2018-07-14T04:53:19.124Z,15.84
2018-07-14T04:54:27.984Z,15.83
2018-07-14T04:55:36.844Z,15.96
2018-07-14T04:56:45.709Z,15.89
2018-07-14T04:57:54.567Z,15.89
2018-07-14T04:59:03.579Z,15.96
2018-07-14T05:00:12.445Z,16.14
2018-07-14T05:01:21.579Z,16.21
2018-07-14T05:02:30.438Z,16.11
2018-07-14T05:03:39.298Z,16.14
2018-07-14T05:04:48.162Z,16.17
2018-07-14T05:05:57.020Z,16.11
2018-07-14T05:07:05.884Z,16.12
2018-07-14T05:08:15.019Z,16.11
2018-07-14T05:09:23.889Z,16.12
2018-07-14T05:10:33.175Z,16.11
2018-07-14T05:11:42.309Z,16.15
2018-07-14T05:12:51.173Z,16.2
2018-07-14T05:14:00.035Z,16.27
2018-07-14T05:15:09.180Z,16.27
2018-07-14T05:16:18.595Z,16.2
2018-07-14T05:17:27.455Z,16.27
2018-07-14T05:18:36.316Z,16.27
2018-07-14T05:19:45.177Z,16.28
2018-07-14T05:20:54.038Z,16.25
2018-07-14T05:22:02.900Z,16.28
2018-07-14T05:23:12.043Z,16.28
2018-07-14T05:24:21.186Z,16.28
2018-07-14T05:25:30.047Z,16.24
2018-07-14T05:26:38.906Z,16.33
2018-07-14T05:27:48.044Z,16.27
2018-07-14T05:28:56.904Z,16.34
2018-07-14T05:30:05.769Z,16.41
2018-07-14T05:31:14.626Z,16.45
2018-07-14T05:32:23.487Z,16.42
2018-07-14T05:33:32.356Z,16.41
2018-07-14T05:34:41.776Z,16.49
2018-07-14T05:35:50.635Z,16.57
2018-07-14T05:36:59.495Z,16.7
2018-07-14T05:38:08.355Z,16.73
2018-07-14T05:39:17.646Z,16.7
2018-07-14T05:40:26.509Z,16.86
2018-07-14T05:41:35.369Z,16.78
2018-07-14T05:42:44.233Z,16.78
2018-07-14T05:43:53.143Z,16.73
2018-07-14T05:45:02.333Z,16.71
2018-07-14T05:46:11.192Z,16.75
2018-07-14T05:47:20.056Z,16.78
2018-07-14T05:48:28.914Z,16.73
2018-07-14T05:49:37.777Z,16.86
2018-07-14T05:50:46.640Z,16.79
2018-07-14T05:51:55.501Z,16.83
2018-07-14T05:53:04.706Z,16.83
2018-07-14T05:54:13.567Z,16.93
2018-07-14T05:55:22.432Z,16.86
2018-07-14T05:56:31.643Z,16.97
2018-07-14T05:57:40.506Z,16.97
2018-07-14T05:58:49.365Z,17.03
2018-07-14T05:59:58.225Z,16.94
2018-07-14T06:01:07.095Z,17.01
2018-07-14T06:02:15.956Z,17.03
2018-07-14T06:03:24.820Z,17.14
2018-07-14T06:04:33.683Z,16.94
2018-07-14T06:05:42.820Z,17.08
2018-07-14T06:06:51.960Z,17.07
2018-07-14T06:08:01.173Z,17.11
2018-07-14T06:09:10.037Z,16.91
2018-07-14T06:10:18.897Z,17.03
2018-07-14T06:11:27.759Z,17.07
2018-07-14T06:12:36.620Z,17.08
2018-07-14T06:13:45.630Z,17.28
2018-07-14T06:14:54.769Z,17.12
2018-07-14T06:16:03.631Z,17.16
2018-07-14T06:17:12.882Z,17.19
2018-07-14T06:18:21.683Z,17.28
2018-07-14T06:19:30.583Z,17.26
2018-07-14T06:20:40.465Z,17.25
2018-07-14T06:21:49.662Z,17.22
2018-07-14T06:22:58.518Z,17.25
2018-07-14T06:24:07.380Z,17.3
2018-07-14T06:25:16.622Z,17.3
2018-07-14T06:26:26.041Z,17.38
2018-07-14T06:27:35.180Z,17.52
2018-07-14T06:28:44.044Z,17.51
2018-07-14T06:29:52.908Z,17.49
2018-07-14T06:31:01.772Z,17.56
2018-07-14T06:32:10.763Z,17.62
2018-07-14T06:33:19.497Z,17.55
2018-07-14T06:34:28.359Z,17.59
2018-07-14T06:35:37.219Z,17.55
2018-07-14T06:36:46.086Z,17.66
2018-07-14T06:37:54.945Z,17.68
2018-07-14T06:39:03.809Z,17.78
2018-07-14T06:40:12.945Z,17.9
2018-07-14T06:41:21.809Z,17.84
2018-07-14T06:42:30.673Z,17.95
2018-07-14T06:43:39.533Z,17.95
2018-07-14T06:44:48.838Z,17.81
2018-07-14T06:45:58.143Z,17.93
2018-07-14T06:47:07.003Z,17.89
2018-07-14T06:48:16.216Z,18.03
2018-07-14T06:49:25.077Z,18.21
2018-07-14T06:50:34.218Z,18.2
2018-07-14T06:51:43.080Z,18.05
2018-07-14T06:52:51.943Z,18
2018-07-14T06:54:00.808Z,18
2018-07-14T06:55:09.671Z,18.17
2018-07-14T06:56:18.808Z,18.15
2018-07-14T06:57:27.948Z,18.18
2018-07-14T06:58:36.810Z,18.23
2018-07-14T06:59:45.927Z,18.15
2018-07-14T07:00:54.786Z,18.29
2018-07-14T07:02:03.649Z,18.18
2018-07-14T07:03:12.519Z,18.2
2018-07-14T07:04:22.069Z,18.3
2018-07-14T07:05:31.283Z,18.32
2018-07-14T07:06:40.142Z,18.35
2018-07-14T07:07:49.005Z,18.32
2018-07-14T07:08:57.867Z,18.3
2018-07-14T07:10:07.008Z,18.33
2018-07-14T07:11:15.873Z,18.39
2018-07-14T07:12:24.734Z,18.18
2018-07-14T07:13:33.897Z,18.41
2018-07-14T07:14:43.042Z,18.35
2018-07-14T07:15:51.904Z,18.47
2018-07-14T07:17:00.867Z,18.44
2018-07-14T07:18:09.731Z,18.42
2018-07-14T07:19:18.594Z,18.47
2018-07-14T07:20:27.467Z,18.51
2018-07-14T07:21:36.335Z,18.44
2018-07-14T07:22:45.476Z,18.51
2018-07-14T07:23:54.892Z,18.5
2018-07-14T07:25:04.033Z,18.65
2018-07-14T07:26:12.895Z,18.72
2018-07-14T07:27:21.757Z,18.54
2018-07-14T07:28:30.773Z,18.58
2018-07-14T07:29:39.632Z,18.57
2018-07-14T07:30:48.496Z,18.57
2018-07-14T07:31:57.359Z,18.65
2018-07-14T07:33:06.222Z,18.78
2018-07-14T07:34:15.084Z,18.63
2018-07-14T07:35:24.507Z,18.5
2018-07-14T07:36:33.364Z,18.52
2018-07-14T07:37:42.233Z,18.62
2018-07-14T07:38:51.370Z,18.69
2018-07-14T07:40:00.234Z,18.67
2018-07-14T07:41:09.098Z,18.69
2018-07-14T07:42:17.968Z,18.65
2018-07-14T07:43:26.945Z,18.72
2018-07-14T07:44:36.092Z,18.67
2018-07-14T07:45:45.109Z,18.75
2018-07-14T07:46:54.245Z,18.88
2018-07-14T07:48:03.108Z,18.84
2018-07-14T07:49:11.972Z,18.85
2018-07-14T07:50:21.115Z,18.9
2018-07-14T07:51:29.980Z,19.02
2018-07-14T07:52:38.848Z,18.98
2018-07-14T07:53:47.713Z,18.95
2018-07-14T07:54:56.573Z,18.91
2018-07-14T07:56:05.437Z,18.95
2018-07-14T07:57:14.941Z,18.94
2018-07-14T07:58:23.803Z,18.91
2018-07-14T07:59:32.668Z,18.95
2018-07-14T08:00:41.818Z,18.9
2018-07-14T08:01:50.675Z,18.91
2018-07-14T08:02:59.689Z,18.95
2018-07-14T08:04:08.553Z,18.98
2018-07-14T08:05:17.414Z,19
2018-07-14T08:06:26.278Z,19.02
2018-07-14T08:07:35.197Z,19.1
2018-07-14T08:08:45.081Z,18.9
2018-07-14T08:09:54.323Z,18.91
2018-07-14T08:11:03.187Z,18.9
2018-07-14T08:12:12.048Z,18.82
2018-07-14T08:13:20.919Z,18.76
2018-07-14T08:14:30.162Z,18.78
2018-07-14T08:15:39.025Z,18.84
2018-07-14T08:16:47.891Z,18.76
2018-07-14T08:17:57.315Z,18.72
2018-07-14T08:19:06.177Z,18.91
2018-07-14T08:20:15.144Z,18.81
2018-07-14T08:21:24.283Z,18.98
2018-07-14T08:22:33.146Z,18.8
2018-07-14T08:23:42.008Z,18.82
2018-07-14T08:24:50.872Z,18.88
2018-07-14T08:25:59.735Z,18.98
2018-07-14T08:27:08.597Z,18.85
2018-07-14T08:28:17.461Z,18.92
2018-07-14T08:29:26.330Z,18.92
2018-07-14T08:30:35.197Z,18.99
2018-07-14T08:31:44.164Z,18.9
2018-07-14T08:32:53.028Z,18.95
2018-07-14T08:34:02.164Z,19.06
2018-07-14T08:35:11.027Z,19.07
2018-07-14T08:36:19.893Z,19.02
2018-07-14T08:37:28.758Z,19.13
2018-07-14T08:38:37.899Z,19.1
2018-07-14T08:39:47.039Z,19.23
2018-07-14T08:40:55.903Z,19.16
2018-07-14T08:42:04.768Z,19.16
2018-07-14T08:43:13.637Z,19.19
2018-07-14T08:44:22.499Z,19.31
2018-07-14T08:45:31.363Z,19.22
2018-07-14T08:46:40.228Z,19.25
2018-07-14T08:47:49.089Z,19.25
2018-07-14T08:48:58.101Z,19.31
2018-07-14T08:50:06.965Z,19.44
2018-07-14T08:51:16.893Z,19.41
2018-07-14T08:52:25.696Z,19.32
2018-07-14T08:53:34.558Z,19.32
2018-07-14T08:54:43.421Z,19.39
2018-07-14T08:55:52.558Z,19.26
2018-07-14T08:57:01.424Z,19.23
2018-07-14T08:58:10.345Z,19.36
2018-07-14T08:59:20.162Z,19.51
2018-07-14T09:00:29.025Z,19.51
2018-07-14T09:01:37.888Z,19.59
2018-07-14T09:02:46.751Z,19.68
2018-07-14T09:03:55.618Z,19.81
2018-07-14T09:05:04.756Z,19.94
2018-07-14T09:06:13.777Z,20.06
2018-07-14T09:07:23.198Z,20.06
2018-07-14T09:08:32.062Z,20.14
2018-07-14T09:09:40.920Z,20.14
2018-07-14T09:10:49.782Z,20.16
2018-07-14T09:11:58.922Z,20.24
2018-07-14T09:13:08.066Z,20.32
2018-07-14T09:14:16.932Z,20.36
2018-07-14T09:15:26.067Z,20.31
2018-07-14T09:16:35.480Z,20.28
2018-07-14T09:17:44.238Z,20.18
2018-07-14T09:18:53.104Z,20.21
2018-07-14T09:20:01.970Z,20.39
2018-07-14T09:21:11.127Z,20.38
2018-07-14T09:22:19.992Z,20.36
2018-07-14T09:23:29.134Z,20.33
2018-07-14T09:24:38.012Z,20.51
2018-07-14T09:25:47.431Z,20.52
2018-07-14T09:26:56.296Z,20.61
2018-07-14T09:28:05.161Z,20.57
2018-07-14T09:29:14.172Z,20.51
2018-07-14T09:30:23.318Z,20.47
2018-07-14T09:31:32.185Z,20.48
2018-07-14T09:32:41.511Z,20.54
2018-07-14T09:33:50.280Z,20.43
2018-07-14T09:34:59.147Z,20.52
2018-07-14T09:36:08.569Z,20.48
2018-07-14T09:37:17.482Z,20.47
2018-07-14T09:38:26.344Z,20.36
2018-07-14T09:39:35.207Z,20.38
2018-07-14T09:40:44.422Z,20.36
2018-07-14T09:41:53.286Z,20.41
2018-07-14T09:43:02.149Z,20.36
2018-07-14T09:44:11.378Z,20.32
2018-07-14T09:45:20.518Z,20.38
2018-07-14T09:46:29.535Z,20.38
2018-07-14T09:47:38.402Z,20.47
2018-07-14T09:48:47.263Z,20.32
2018-07-14T09:49:56.405Z,20.33
2018-07-14T09:51:05.268Z,20.39
2018-07-14T09:52:14.138Z,20.5
2018-07-14T09:53:22.997Z,20.48
2018-07-14T09:54:31.860Z,20.48
2018-07-14T09:55:41.002Z,20.51
2018-07-14T09:56:49.863Z,20.64
2018-07-14T09:57:58.727Z,20.76
2018-07-14T09:59:07.592Z,20.88
2018-07-14T10:00:16.461Z,20.77
2018-07-14T10:01:25.324Z,20.91
2018-07-14T10:02:34.191Z,20.82
2018-07-14T10:03:43.205Z,20.98
2018-07-14T10:04:52.068Z,20.98
2018-07-14T10:06:00.938Z,20.99
2018-07-14T10:07:10.834Z,20.99
2018-07-14T10:08:19.696Z,20.99
2018-07-14T10:09:28.560Z,21.19
2018-07-14T10:10:37.422Z,21.01
2018-07-14T10:11:46.289Z,21.01
2018-07-14T10:12:55.427Z,20.97
2018-07-14T10:14:04.294Z,20.94
2018-07-14T10:15:13.590Z,20.8
2018-07-14T10:16:22.740Z,20.82
2018-07-14T10:17:31.640Z,20.91
2018-07-14T10:18:40.470Z,20.89
2018-07-14T10:19:49.887Z,21.06
2018-07-14T10:20:58.756Z,21.04
2018-07-14T10:22:07.622Z,21.17
2018-07-14T10:23:16.485Z,21.28
2018-07-14T10:24:25.627Z,21.46
2018-07-14T10:25:34.587Z,21.38
2018-07-14T10:26:44.004Z,21.43
2018-07-14T10:27:52.873Z,21.31
2018-07-14T10:29:01.758Z,21.28
2018-07-14T10:30:10.885Z,21.21
2018-07-14T10:31:20.027Z,21.16
2018-07-14T10:32:28.891Z,21.29
2018-07-14T10:33:37.843Z,21.37
2018-07-14T10:34:46.903Z,21.42
2018-07-14T10:35:55.768Z,21.58
2018-07-14T10:37:04.914Z,21.5
2018-07-14T10:38:13.879Z,21.4
2018-07-14T10:39:22.744Z,21.4
2018-07-14T10:40:31.609Z,21.46
2018-07-14T10:41:40.474Z,21.53
2018-07-14T10:42:49.339Z,21.59
2018-07-14T10:43:58.304Z,21.71
2018-07-14T10:45:07.171Z,21.67
2018-07-14T10:46:16.040Z,21.61
2018-07-14T10:47:24.904Z,21.65
2018-07-14T10:48:33.771Z,21.61
2018-07-14T10:49:42.785Z,21.68
2018-07-14T10:50:51.651Z,21.64
2018-07-14T10:52:00.520Z,21.52
2018-07-14T10:53:09.944Z,21.62
2018-07-14T10:54:18.812Z,21.69
2018-07-14T10:55:27.682Z,21.77
2018-07-14T10:56:36.545Z,21.82
2018-07-14T10:57:45.410Z,21.82
2018-07-14T10:58:54.277Z,21.88
2018-07-14T11:00:03.144Z,21.75
2018-07-14T11:01:12.011Z,21.65
2018-07-14T11:02:20.878Z,21.68
2018-07-14T11:03:30.021Z,21.8
2018-07-14T11:04:39.163Z,21.88
2018-07-14T11:05:48.028Z,21.86
2018-07-14T11:06:57.246Z,21.9
2018-07-14T11:08:06.114Z,22
2018-07-14T11:09:14.976Z,22.02
2018-07-14T11:10:23.842Z,21.98
2018-07-14T11:11:32.707Z,22.06
2018-07-14T11:12:41.573Z,22.06
2018-07-14T11:13:50.442Z,21.99
2018-07-14T11:14:59.309Z,22.09
2018-07-14T11:16:08.174Z,22.1
2018-07-14T11:17:17.047Z,22.14
2018-07-14T11:18:26.296Z,22.14
2018-07-14T11:19:35.161Z,22.27
2018-07-14T11:20:44.029Z,22.22
2018-07-14T11:21:53.169Z,22.21
2018-07-14T11:23:02.038Z,22.3
2018-07-14T11:24:11.337Z,22.22
2018-07-14T11:25:20.253Z,22.24
2018-07-14T11:26:29.396Z,22.35
2018-07-14T11:27:38.259Z,22.3
2018-07-14T11:28:47.404Z,22.35
2018-07-14T11:29:56.269Z,22.27
2018-07-14T11:31:05.136Z,22.35
2018-07-14T11:32:14.002Z,22.33
2018-07-14T11:33:22.866Z,22.43
2018-07-14T11:34:32.104Z,22.4
2018-07-14T11:35:41.371Z,22.43
2018-07-14T11:36:50.525Z,22.42
2018-07-14T11:37:59.665Z,22.43
2018-07-14T11:39:08.530Z,22.51
2018-07-14T11:40:17.670Z,22.49
2018-07-14T11:41:27.239Z,22.47
2018-07-14T11:42:36.105Z,22.49
2018-07-14T11:43:44.976Z,22.62
2018-07-14T11:44:53.838Z,22.65
2018-07-14T11:46:02.705Z,22.73
2018-07-14T11:47:11.921Z,22.68
2018-07-14T11:48:21.342Z,22.72
2018-07-14T11:49:30.216Z,22.72
2018-07-14T11:50:39.075Z,22.73
2018-07-14T11:51:48.221Z,22.8
2018-07-14T11:52:57.437Z,22.76
2018-07-14T11:54:06.613Z,23
2018-07-14T11:55:15.476Z,23.05
2018-07-14T11:56:24.344Z,23.25
2018-07-14T11:57:33.765Z,23.2
2018-07-14T11:58:42.781Z,23.31
2018-07-14T11:59:51.661Z,23.32
2018-07-14T12:01:00.524Z,23.4
2018-07-14T12:02:09.396Z,23.38
2018-07-14T12:03:18.541Z,23.33
2018-07-14T12:04:27.558Z,23.32
2018-07-14T12:05:36.425Z,23.33
2018-07-14T12:06:45.580Z,23.25
2018-07-14T12:07:54.447Z,23.16
2018-07-14T12:09:03.590Z,23.1
2018-07-14T12:10:12.460Z,23.13
2018-07-14T12:11:21.326Z,23.19
2018-07-14T12:12:30.198Z,23.23
2018-07-14T12:13:39.354Z,23.38
2018-07-14T12:14:48.220Z,23.6
2018-07-14T12:15:57.442Z,23.76
2018-07-14T12:17:06.312Z,23.79
2018-07-14T12:18:15.180Z,23.9
2018-07-14T12:19:24.047Z,23.97
2018-07-14T12:20:33.192Z,24
2018-07-14T12:21:42.212Z,24
2018-07-14T12:22:51.362Z,23.98
2018-07-14T12:24:00.232Z,23.9
2018-07-14T12:25:09.099Z,23.75
2018-07-14T12:26:17.974Z,23.72
2018-07-14T12:27:27.566Z,23.7
2018-07-14T12:28:36.433Z,23.75
2018-07-14T12:29:45.298Z,23.97
2018-07-14T12:30:54.445Z,24.08
2018-07-14T12:32:03.315Z,24.2
2018-07-14T12:33:12.344Z,24.2
2018-07-14T12:34:21.208Z,24.6
2018-07-14T12:35:30.354Z,24.69
2018-07-14T12:36:39.269Z,24.78
2018-07-14T12:37:48.484Z,25.03
2018-07-14T12:38:57.635Z,25.21
2018-07-14T12:40:06.509Z,25.33
2018-07-14T12:41:15.382Z,25.4
2018-07-14T12:42:24.253Z,25.24
2018-07-14T12:43:33.125Z,25.14
2018-07-14T12:44:42.273Z,25.25
2018-07-14T12:45:51.144Z,25.21
2018-07-14T12:47:00.021Z,25.23
2018-07-14T12:48:09.188Z,25.33
2018-07-14T12:49:18.337Z,25.4
2018-07-14T12:50:27.359Z,25.43
2018-07-14T12:51:36.245Z,25.4
2018-07-14T12:52:45.119Z,25.43
2018-07-14T12:53:54.009Z,25.46
2018-07-14T12:55:03.146Z,25.38
2018-07-14T12:56:12.369Z,25.23
2018-07-14T12:57:21.238Z,25.21
2018-07-14T12:58:30.113Z,25.21
2018-07-14T12:59:38.983Z,25.35
2018-07-14T13:00:47.854Z,25.39
2018-07-14T13:01:56.834Z,25.42
2018-07-14T13:03:06.257Z,25.54
2018-07-14T13:04:15.141Z,25.51
2018-07-14T13:05:24.007Z,25.39
2018-07-14T13:06:33.339Z,25.39
2018-07-14T13:07:43.396Z,25.39
2018-07-14T13:08:52.140Z,25.47
2018-07-14T13:10:01.011Z,25.5
2018-07-14T13:11:10.175Z,25.54
2018-07-14T13:12:19.044Z,25.64
2018-07-14T13:13:27.919Z,25.83
2018-07-14T13:14:37.066Z,25.62
2018-07-14T13:15:45.940Z,25.62
2018-07-14T13:16:54.813Z,25.54
2018-07-14T13:18:03.971Z,25.52
2018-07-14T13:19:12.843Z,25.58
2018-07-14T13:20:21.717Z,25.55
2018-07-14T13:21:30.590Z,25.5
2018-07-14T13:22:39.743Z,25.51
2018-07-14T13:23:48.612Z,25.38
2018-07-14T13:24:57.859Z,25.55
2018-07-14T13:26:07.288Z,25.42
2018-07-14T13:27:16.162Z,25.4
2018-07-14T13:28:25.034Z,25.36
2018-07-14T13:29:33.905Z,25.35
2018-07-14T13:30:42.876Z,25.24
2018-07-14T13:31:51.751Z,25.2
2018-07-14T13:33:00.903Z,25.21
2018-07-14T13:34:09.773Z,25.21
2018-07-14T13:35:18.926Z,25.38
2018-07-14T13:36:28.012Z,25.52
2018-07-14T13:37:36.822Z,25.7
2018-07-14T13:38:51.613Z,25.92
2018-07-14T13:40:01.061Z,26.09
2018-07-14T13:41:10.497Z,26.05
2018-07-14T13:42:19.518Z,26.06
2018-07-14T13:43:28.667Z,26.06
2018-07-14T13:44:37.815Z,25.97
2018-07-14T13:45:46.690Z,25.94
2018-07-14T13:46:55.834Z,25.92
2018-07-14T13:48:04.989Z,26.06
2018-07-14T13:49:13.860Z,25.9
2018-07-14T13:50:22.731Z,25.95
2018-07-14T13:51:31.604Z,25.76
2018-07-14T13:52:40.478Z,25.61
2018-07-14T13:53:49.774Z,25.51
2018-07-14T13:54:58.641Z,25.52
2018-07-14T13:56:07.511Z,25.43
2018-07-14T13:57:16.936Z,25.42
2018-07-14T13:58:25.806Z,25.39
2018-07-14T13:59:34.674Z,25.39
2018-07-14T14:00:43.825Z,25.32
2018-07-14T14:01:52.694Z,25.33
2018-07-14T14:03:01.565Z,25.35
2018-07-14T14:04:10.434Z,25.25
2018-07-14T14:05:19.454Z,25.4
2018-07-14T14:06:28.610Z,25.51
2018-07-14T14:07:37.483Z,25.64
2018-07-14T14:08:46.355Z,25.83
2018-07-14T14:09:55.230Z,25.97
2018-07-14T14:11:04.109Z,26.3
2018-07-14T14:12:12.977Z,26.43
2018-07-14T14:13:21.859Z,26.62
2018-07-14T14:14:31.000Z,26.82
2018-07-14T14:15:39.874Z,26.92
2018-07-14T14:16:48.746Z,26.94
2018-07-14T14:17:57.621Z,26.92
2018-07-14T14:19:06.786Z,26.85
2018-07-14T14:20:15.663Z,26.8
2018-07-14T14:21:24.816Z,26.76
2018-07-14T14:22:33.689Z,26.6
2018-07-14T14:23:42.561Z,26.47
2018-07-14T14:24:51.435Z,26.37
2018-07-14T14:26:00.308Z,26.2
2018-07-14T14:27:09.185Z,26.12
2018-07-14T14:28:18.482Z,26.07
2018-07-14T14:29:27.630Z,25.97
2018-07-14T14:30:36.502Z,25.91
2018-07-14T14:31:45.930Z,25.9
2018-07-14T14:32:54.860Z,25.8
2018-07-14T14:34:03.819Z,25.62
2018-07-14T14:35:12.690Z,25.52
2018-07-14T14:36:21.610Z,25.46
2018-07-14T14:37:30.478Z,25.42
2018-07-14T14:38:39.346Z,25.42
2018-07-14T14:39:48.842Z,25.47
2018-07-14T14:40:57.708Z,25.42
2018-07-14T14:42:06.579Z,25.42
2018-07-14T14:43:15.447Z,25.32
2018-07-14T14:44:24.598Z,25.32
2018-07-14T14:45:33.820Z,25.33
2018-07-14T14:46:42.687Z,25.23
2018-07-14T14:47:51.558Z,25.2
2018-07-14T14:49:00.424Z,25.33
2018-07-14T14:50:09.295Z,25.4
2018-07-14T14:51:18.169Z,25.46
2018-07-14T14:52:27.039Z,25.4